sensor_id;sensor_type;location;lat;lon;timestamp;P1;durP1;ratioP1;P2;durP2;ratioP2
39276;SDS011;63149;48.086;-1.606;2023-04-23T05:01:11;14.68;;;3.30;;
39276;SDS011;63149;48.086;-1.606;2023-04-23T05:03:38;10.63;;;3.35;;
39276;SDS011;63149;48.086;-1.606;2023-04-23T05:06:05;8.27;;;2.70;;
39276;SDS011;63149;48.086;-1.606;2023-04-23T05:08:32;14.63;;;3.17;;
39276;SDS011;63149;48.086;-1.606;2023-04-23T05:10:59;11.27;;;3.00;;
39276;SDS011;63149;48.086;-1.606;2023-04-23T05:13:28;15.05;;;2.90;;
39276;SDS011;63149;48.086;-1.606;2023-04-23T05:15:54;11.88;;;4.13;;
39276;SDS011;63149;48.086;-1.606;2023-04-23T05:18:23;11.25;;;2.90;;
39276;SDS011;63149;48.086;-1.606;2023-04-23T05:20:50;13.85;;;3.63;;
39276;SDS011;63149;48.086;-1.606;2023-04-23T05:23:17;15.18;;;3.28;;
39276;SDS011;63149;48.086;-1.606;2023-04-23T05:25:43;18.42;;;3.40;;
39276;SDS011;63149;48.086;-1.606;2023-04-23T05:28:10;16.95;;;3.38;;
39276;SDS011;63149;48.086;-1.606;2023-04-23T05:30:37;12.10;;;3.67;;
39276;SDS011;63149;48.086;-1.606;2023-04-23T05:33:04;13.00;;;3.90;;
39276;SDS011;63149;48.086;-1.606;2023-04-23T05:35:33;11.13;;;3.30;;
39276;SDS011;63149;48.086;-1.606;2023-04-23T05:37:59;15.82;;;4.05;;
39276;SDS011;63149;48.086;-1.606;2023-04-23T05:40:26;15.60;;;3.78;;
39276;SDS011;63149;48.086;-1.606;2023-04-23T05:42:54;13.20;;;3.67;;
39276;SDS011;63149;48.086;-1.606;2023-04-23T05:45:22;16.58;;;4.15;;
39276;SDS011;63149;48.086;-1.606;2023-04-23T05:47:49;14.25;;;3.33;;
39276;SDS011;63149;48.086;-1.606;2023-04-23T05:50:16;13.98;;;3.92;;
39276;SDS011;63149;48.086;-1.606;2023-04-23T05:52:45;16.92;;;3.70;;
39276;SDS011;63149;48.086;-1.606;2023-04-23T05:55:12;23.80;;;4.07;;
39276;SDS011;63149;48.086;-1.606;2023-04-23T05:57:39;14.18;;;4.55;;
39276;SDS011;63149;48.086;-1.606;2023-04-23T06:00:07;16.20;;;4.40;;
39276;SDS011;63149;48.086;-1.606;2023-04-23T06:02:35;17.05;;;4.20;;
39276;SDS011;63149;48.086;-1.606;2023-04-23T06:05:02;19.33;;;5.40;;
39276;SDS011;63149;48.086;-1.606;2023-04-23T06:07:30;15.60;;;4.10;;
39276;SDS011;63149;48.086;-1.606;2023-04-23T06:09:58;14.70;;;4.65;;
39276;SDS011;63149;48.086;-1.606;2023-04-23T06:12:26;15.93;;;5.28;;
39276;SDS011;63149;48.086;-1.606;2023-04-23T06:14:53;17.38;;;4.45;;
39276;SDS011;63149;48.086;-1.606;2023-04-23T06:17:19;16.73;;;4.45;;
39276;SDS011;63149;48.086;-1.606;2023-04-23T06:19:46;11.43;;;4.72;;
39276;SDS011;63149;48.086;-1.606;2023-04-23T06:22:13;21.23;;;4.55;;
39276;SDS011;63149;48.086;-1.606;2023-04-23T06:24:40;21.02;;;5.75;;
39276;SDS011;63149;48.086;-1.606;2023-04-23T06:27:08;22.70;;;5.43;;
39276;SDS011;63149;48.086;-1.606;2023-04-23T06:29:35;15.35;;;5.85;;
39276;SDS011;63149;48.086;-1.606;2023-04-23T06:32:02;17.65;;;5.47;;
39276;SDS011;63149;48.086;-1.606;2023-04-23T06:34:30;15.60;;;6.90;;
39276;SDS011;63149;48.086;-1.606;2023-04-23T06:36:57;14.63;;;6.07;;
39276;SDS011;63149;48.086;-1.606;2023-04-23T06:39:24;12.85;;;5.78;;
39276;SDS011;63149;48.086;-1.606;2023-04-23T06:41:50;17.50;;;5.65;;
39276;SDS011;63149;48.086;-1.606;2023-04-23T06:44:19;14.88;;;6.20;;
39276;SDS011;63149;48.086;-1.606;2023-04-23T06:46:46;11.80;;;5.63;;
39276;SDS011;63149;48.086;-1.606;2023-04-23T06:49:13;14.95;;;6.40;;
39276;SDS011;63149;48.086;-1.606;2023-04-23T06:51:40;16.08;;;6.38;;
39276;SDS011;63149;48.086;-1.606;2023-04-23T06:54:06;18.67;;;6.22;;
39276;SDS011;63149;48.086;-1.606;2023-04-23T06:56:33;16.95;;;5.50;;
39276;SDS011;63149;48.086;-1.606;2023-04-23T06:59:00;14.98;;;5.13;;
39276;SDS011;63149;48.086;-1.606;2023-04-23T07:01:29;13.52;;;5.40;;
39276;SDS011;63149;48.086;-1.606;2023-04-23T07:03:56;16.90;;;6.47;;
39276;SDS011;63149;48.086;-1.606;2023-04-23T07:06:23;14.60;;;6.13;;
39276;SDS011;63149;48.086;-1.606;2023-04-23T07:08:51;14.15;;;5.10;;
39276;SDS011;63149;48.086;-1.606;2023-04-23T07:11:18;9.90;;;4.68;;
39276;SDS011;63149;48.086;-1.606;2023-04-23T07:13:45;8.68;;;4.18;;
39276;SDS011;63149;48.086;-1.606;2023-04-23T07:16:12;12.93;;;4.63;;
39276;SDS011;63149;48.086;-1.606;2023-04-23T07:18:40;9.23;;;3.90;;
39276;SDS011;63149;48.086;-1.606;2023-04-23T07:21:07;11.93;;;3.85;;
39276;SDS011;63149;48.086;-1.606;2023-04-23T07:23:35;8.75;;;4.00;;
39276;SDS011;63149;48.086;-1.606;2023-04-23T07:26:01;10.65;;;3.60;;
39276;SDS011;63149;48.086;-1.606;2023-04-23T07:28:28;10.05;;;2.50;;
39276;SDS011;63149;48.086;-1.606;2023-04-23T07:30:56;3.63;;;1.65;;
39276;SDS011;63149;48.086;-1.606;2023-04-23T07:33:23;3.22;;;0.80;;
39276;SDS011;63149;48.086;-1.606;2023-04-23T07:35:51;0.50;;;0.50;;
39276;SDS011;63149;48.086;-1.606;2023-04-23T07:38:18;0.55;;;0.55;;
39276;SDS011;63149;48.086;-1.606;2023-04-23T07:40:45;0.45;;;0.30;;
39276;SDS011;63149;48.086;-1.606;2023-04-23T07:43:13;0.28;;;0.20;;
39276;SDS011;63149;48.086;-1.606;2023-04-23T07:45:41;0.55;;;0.40;;
39276;SDS011;63149;48.086;-1.606;2023-04-23T07:48:08;0.70;;;0.30;;
39276;SDS011;63149;48.086;-1.606;2023-04-23T07:50:35;0.50;;;0.50;;
39276;SDS011;63149;48.086;-1.606;2023-04-23T07:53:04;0.28;;;0.20;;
39276;SDS011;63149;48.086;-1.606;2023-04-23T07:55:31;0.30;;;0.30;;
39276;SDS011;63149;48.086;-1.606;2023-04-23T07:57:58;0.50;;;0.47;;
39276;SDS011;63149;48.086;-1.606;2023-04-23T08:00:25;0.40;;;0.40;;
39276;SDS011;63149;48.086;-1.606;2023-04-23T08:02:52;0.77;;;0.77;;
39276;SDS011;63149;48.086;-1.606;2023-04-23T08:05:19;2.53;;;0.85;;
39276;SDS011;63149;48.086;-1.606;2023-04-23T08:07:46;1.48;;;0.63;;
39276;SDS011;63149;48.086;-1.606;2023-04-23T08:10:14;2.42;;;0.82;;
39276;SDS011;63149;48.086;-1.606;2023-04-23T08:12:41;1.85;;;0.77;;
39276;SDS011;63149;48.086;-1.606;2023-04-23T08:15:09;2.40;;;0.50;;
39276;SDS011;63149;48.086;-1.606;2023-04-23T08:17:36;0.70;;;0.70;;
39276;SDS011;63149;48.086;-1.606;2023-04-23T08:20:04;2.08;;;0.75;;
39276;SDS011;63149;48.086;-1.606;2023-04-23T08:22:31;1.55;;;0.80;;
39276;SDS011;63149;48.086;-1.606;2023-04-23T08:24:59;2.15;;;0.68;;
39276;SDS011;63149;48.086;-1.606;2023-04-23T08:27:27;1.65;;;0.80;;
39276;SDS011;63149;48.086;-1.606;2023-04-23T08:29:54;1.40;;;0.80;;
39276;SDS011;63149;48.086;-1.606;2023-04-23T08:32:22;1.42;;;0.60;;
39276;SDS011;63149;48.086;-1.606;2023-04-23T08:34:49;1.73;;;0.90;;
39276;SDS011;63149;48.086;-1.606;2023-04-23T08:37:16;0.98;;;0.80;;
39276;SDS011;63149;48.086;-1.606;2023-04-23T08:39:43;2.17;;;1.02;;
39276;SDS011;63149;48.086;-1.606;2023-04-23T08:42:13;0.65;;;0.50;;
39276;SDS011;63149;48.086;-1.606;2023-04-23T08:44:43;1.17;;;0.68;;
39276;SDS011;63149;48.086;-1.606;2023-04-23T08:47:13;0.90;;;0.80;;
39276;SDS011;63149;48.086;-1.606;2023-04-23T08:49:44;0.83;;;0.73;;
39276;SDS011;63149;48.086;-1.606;2023-04-23T08:52:14;0.75;;;0.75;;
39276;SDS011;63149;48.086;-1.606;2023-04-23T08:54:44;1.27;;;0.80;;
39276;SDS011;63149;48.086;-1.606;2023-04-23T08:57:12;4.72;;;0.82;;
39276;SDS011;63149;48.086;-1.606;2023-04-23T08:59:40;3.00;;;0.82;;
39276;SDS011;63149;48.086;-1.606;2023-04-23T09:02:08;4.15;;;1.15;;
39276;SDS011;63149;48.086;-1.606;2023-04-23T09:04:36;4.47;;;1.02;;
39276;SDS011;63149;48.086;-1.606;2023-04-23T09:07:04;1.00;;;0.80;;
39276;SDS011;63149;48.086;-1.606;2023-04-23T09:09:35;1.30;;;0.70;;
39276;SDS011;63149;48.086;-1.606;2023-04-23T09:12:03;2.53;;;1.20;;
39276;SDS011;63149;48.086;-1.606;2023-04-23T09:14:30;2.50;;;1.05;;
39276;SDS011;63149;48.086;-1.606;2023-04-23T09:16:58;2.22;;;0.77;;
39276;SDS011;63149;48.086;-1.606;2023-04-23T09:19:27;2.15;;;0.90;;
39276;SDS011;63149;48.086;-1.606;2023-04-23T09:21:54;1.13;;;1.02;;
39276;SDS011;63149;48.086;-1.606;2023-04-23T09:24:22;2.50;;;0.98;;
39276;SDS011;63149;48.086;-1.606;2023-04-23T09:26:50;1.30;;;1.00;;
39276;SDS011;63149;48.086;-1.606;2023-04-23T09:29:19;4.70;;;1.33;;
39276;SDS011;63149;48.086;-1.606;2023-04-23T09:31:48;3.05;;;1.30;;
39276;SDS011;63149;48.086;-1.606;2023-04-23T09:34:16;4.22;;;1.60;;
39276;SDS011;63149;48.086;-1.606;2023-04-23T09:36:45;2.97;;;1.55;;
39276;SDS011;63149;48.086;-1.606;2023-04-23T09:39:13;5.75;;;1.45;;
39276;SDS011;63149;48.086;-1.606;2023-04-23T09:41:41;4.60;;;1.50;;
39276;SDS011;63149;48.086;-1.606;2023-04-23T09:44:09;8.27;;;2.03;;
39276;SDS011;63149;48.086;-1.606;2023-04-23T09:46:38;5.90;;;1.88;;
39276;SDS011;63149;48.086;-1.606;2023-04-23T09:49:06;8.57;;;2.10;;
39276;SDS011;63149;48.086;-1.606;2023-04-23T09:51:37;6.05;;;1.90;;
39276;SDS011;63149;48.086;-1.606;2023-04-23T09:54:10;4.97;;;2.03;;
39276;SDS011;63149;48.086;-1.606;2023-04-23T09:56:38;10.50;;;1.90;;
39276;SDS011;63149;48.086;-1.606;2023-04-23T09:59:18;7.95;;;2.05;;
39276;SDS011;63149;48.086;-1.606;2023-04-23T10:01:45;8.30;;;1.92;;
39276;SDS011;63149;48.086;-1.606;2023-04-23T10:04:13;6.22;;;1.63;;
39276;SDS011;63149;48.086;-1.606;2023-04-23T10:06:43;5.97;;;2.38;;
39276;SDS011;63149;48.086;-1.606;2023-04-23T10:09:12;10.20;;;2.30;;
39276;SDS011;63149;48.086;-1.606;2023-04-23T10:11:40;8.15;;;2.00;;
39276;SDS011;63149;48.086;-1.606;2023-04-23T10:14:07;8.23;;;2.30;;
39276;SDS011;63149;48.086;-1.606;2023-04-23T10:16:35;8.35;;;2.28;;
39276;SDS011;63149;48.086;-1.606;2023-04-23T10:19:03;13.57;;;2.47;;
39276;SDS011;63149;48.086;-1.606;2023-04-23T10:21:31;9.88;;;2.47;;
39276;SDS011;63149;48.086;-1.606;2023-04-23T10:23:59;11.40;;;2.90;;
39276;SDS011;63149;48.086;-1.606;2023-04-23T10:26:29;8.15;;;2.65;;
39276;SDS011;63149;48.086;-1.606;2023-04-23T10:28:57;13.15;;;3.78;;
39276;SDS011;63149;48.086;-1.606;2023-04-23T10:31:26;15.93;;;4.60;;
39276;SDS011;63149;48.086;-1.606;2023-04-23T10:33:54;9.40;;;4.47;;
39276;SDS011;63149;48.086;-1.606;2023-04-23T10:36:22;14.10;;;5.68;;
39276;SDS011;63149;48.086;-1.606;2023-04-23T10:38:51;10.63;;;3.65;;
39276;SDS011;63149;48.086;-1.606;2023-04-23T10:41:20;7.25;;;2.83;;
39276;SDS011;63149;48.086;-1.606;2023-04-23T10:43:51;7.38;;;3.47;;
39276;SDS011;63149;48.086;-1.606;2023-04-23T10:46:27;6.60;;;2.85;;
39276;SDS011;63149;48.086;-1.606;2023-04-23T10:49:04;8.77;;;2.58;;
39276;SDS011;63149;48.086;-1.606;2023-04-23T10:51:32;6.05;;;2.28;;
39276;SDS011;63149;48.086;-1.606;2023-04-23T10:54:01;9.85;;;2.92;;
39276;SDS011;63149;48.086;-1.606;2023-04-23T10:56:28;5.85;;;3.00;;
39276;SDS011;63149;48.086;-1.606;2023-04-23T10:58:56;9.73;;;2.72;;
39276;SDS011;63149;48.086;-1.606;2023-04-23T11:01:24;7.95;;;2.40;;
39276;SDS011;63149;48.086;-1.606;2023-04-23T11:03:52;9.88;;;2.60;;
39276;SDS011;63149;48.086;-1.606;2023-04-23T11:06:20;6.95;;;2.67;;
39276;SDS011;63149;48.086;-1.606;2023-04-23T11:11:49;7.60;;;2.92;;
39276;SDS011;63149;48.086;-1.606;2023-04-23T11:14:18;6.18;;;3.40;;
39276;SDS011;63149;48.086;-1.606;2023-04-23T11:16:46;7.97;;;3.40;;
39276;SDS011;63149;48.086;-1.606;2023-04-23T11:19:14;7.10;;;3.65;;
39276;SDS011;63149;48.086;-1.606;2023-04-23T11:21:57;12.20;;;3.42;;
39276;SDS011;63149;48.086;-1.606;2023-04-23T11:24:29;10.48;;;3.13;;
39276;SDS011;63149;48.086;-1.606;2023-04-23T11:26:56;7.43;;;2.95;;
39276;SDS011;63149;48.086;-1.606;2023-04-23T11:29:25;8.20;;;3.95;;
39276;SDS011;63149;48.086;-1.606;2023-04-23T11:31:53;6.20;;;2.60;;
39276;SDS011;63149;48.086;-1.606;2023-04-23T11:34:21;10.90;;;3.13;;
39276;SDS011;63149;48.086;-1.606;2023-04-23T11:36:50;8.50;;;4.43;;
39276;SDS011;63149;48.086;-1.606;2023-04-23T11:39:18;6.72;;;2.88;;
39276;SDS011;63149;48.086;-1.606;2023-04-23T11:41:45;7.05;;;2.50;;
39276;SDS011;63149;48.086;-1.606;2023-04-23T11:44:14;7.80;;;2.70;;
39276;SDS011;63149;48.086;-1.606;2023-04-23T11:46:42;6.22;;;2.90;;
39276;SDS011;63149;48.086;-1.606;2023-04-23T11:49:12;3.83;;;2.20;;
39276;SDS011;63149;48.086;-1.606;2023-04-23T11:51:40;6.78;;;3.10;;
39276;SDS011;63149;48.086;-1.606;2023-04-23T11:54:11;8.68;;;2.72;;
39276;SDS011;63149;48.086;-1.606;2023-04-23T11:56:38;4.78;;;2.22;;
39276;SDS011;63149;48.086;-1.606;2023-04-23T11:59:06;4.05;;;2.22;;
39276;SDS011;63149;48.086;-1.606;2023-04-23T12:01:44;6.18;;;2.10;;
39276;SDS011;63149;48.086;-1.606;2023-04-23T12:04:12;6.03;;;2.30;;
39276;SDS011;63149;48.086;-1.606;2023-04-23T12:06:40;4.60;;;1.58;;
39276;SDS011;63149;48.086;-1.606;2023-04-23T12:09:07;1.55;;;1.20;;
39276;SDS011;63149;48.086;-1.606;2023-04-23T12:11:35;2.17;;;1.27;;
39276;SDS011;63149;48.086;-1.606;2023-04-23T12:14:03;4.30;;;1.30;;
39276;SDS011;63149;48.086;-1.606;2023-04-23T12:16:33;3.92;;;1.27;;
39276;SDS011;63149;48.086;-1.606;2023-04-23T12:19:02;3.33;;;1.23;;
39276;SDS011;63149;48.086;-1.606;2023-04-23T12:21:30;2.25;;;1.30;;
39276;SDS011;63149;48.086;-1.606;2023-04-23T12:23:58;1.83;;;0.93;;
39276;SDS011;63149;48.086;-1.606;2023-04-23T12:26:25;1.95;;;0.60;;
39276;SDS011;63149;48.086;-1.606;2023-04-23T12:28:54;1.58;;;0.73;;
39276;SDS011;63149;48.086;-1.606;2023-04-23T12:31:24;2.30;;;0.80;;
39276;SDS011;63149;48.086;-1.606;2023-04-23T12:34:00;2.03;;;1.00;;
39276;SDS011;63149;48.086;-1.606;2023-04-23T12:36:29;1.30;;;0.88;;
39276;SDS011;63149;48.086;-1.606;2023-04-23T12:41:42;3.10;;;0.93;;
39276;SDS011;63149;48.086;-1.606;2023-04-23T12:44:10;3.50;;;1.58;;
39276;SDS011;63149;48.086;-1.606;2023-04-23T12:46:37;5.38;;;1.95;;
39276;SDS011;63149;48.086;-1.606;2023-04-23T12:49:04;3.85;;;2.25;;
39276;SDS011;63149;48.086;-1.606;2023-04-23T12:51:33;1.55;;;1.38;;
39276;SDS011;63149;48.086;-1.606;2023-04-23T12:54:00;1.70;;;1.30;;
39276;SDS011;63149;48.086;-1.606;2023-04-23T12:56:28;2.00;;;1.38;;
39276;SDS011;63149;48.086;-1.606;2023-04-23T12:58:55;2.00;;;1.70;;
39276;SDS011;63149;48.086;-1.606;2023-04-23T13:01:26;2.00;;;1.80;;
39276;SDS011;63149;48.086;-1.606;2023-04-23T13:03:53;3.05;;;2.30;;
39276;SDS011;63149;48.086;-1.606;2023-04-23T13:06:20;3.08;;;1.83;;
39276;SDS011;63149;48.086;-1.606;2023-04-23T13:08:49;2.47;;;1.05;;
39276;SDS011;63149;48.086;-1.606;2023-04-23T13:11:16;2.60;;;2.05;;
39276;SDS011;63149;48.086;-1.606;2023-04-23T13:13:44;2.33;;;1.48;;
39276;SDS011;63149;48.086;-1.606;2023-04-23T13:16:11;3.15;;;1.73;;
39276;SDS011;63149;48.086;-1.606;2023-04-23T13:18:39;3.83;;;1.90;;
39276;SDS011;63149;48.086;-1.606;2023-04-23T13:21:06;6.80;;;3.13;;
39276;SDS011;63149;48.086;-1.606;2023-04-23T13:23:33;4.47;;;2.53;;
39276;SDS011;63149;48.086;-1.606;2023-04-23T13:26:03;3.60;;;2.47;;
39276;SDS011;63149;48.086;-1.606;2023-04-23T13:28:32;3.40;;;2.17;;
39276;SDS011;63149;48.086;-1.606;2023-04-23T13:31:00;2.72;;;2.20;;
39276;SDS011;63149;48.086;-1.606;2023-04-23T13:33:28;2.58;;;2.00;;
39276;SDS011;63149;48.086;-1.606;2023-04-23T13:35:55;6.57;;;2.00;;
39276;SDS011;63149;48.086;-1.606;2023-04-23T13:38:23;3.83;;;1.70;;
39276;SDS011;63149;48.086;-1.606;2023-04-23T13:40:50;3.05;;;1.95;;
39276;SDS011;63149;48.086;-1.606;2023-04-23T13:43:19;2.58;;;2.05;;
39276;SDS011;63149;48.086;-1.606;2023-04-23T13:45:46;4.47;;;2.17;;
39276;SDS011;63149;48.086;-1.606;2023-04-23T13:48:13;5.15;;;2.30;;
39276;SDS011;63149;48.086;-1.606;2023-04-23T13:50:41;6.05;;;3.38;;
39276;SDS011;63149;48.086;-1.606;2023-04-23T13:53:08;3.22;;;2.47;;
39276;SDS011;63149;48.086;-1.606;2023-04-23T13:55:36;2.53;;;2.17;;
39276;SDS011;63149;48.086;-1.606;2023-04-23T13:58:03;3.03;;;2.13;;
39276;SDS011;63149;48.086;-1.606;2023-04-23T14:00:32;2.63;;;2.20;;
39276;SDS011;63149;48.086;-1.606;2023-04-23T14:02:59;3.17;;;1.90;;
39276;SDS011;63149;48.086;-1.606;2023-04-23T14:05:27;1.60;;;1.50;;
39276;SDS011;63149;48.086;-1.606;2023-04-23T14:07:54;2.25;;;2.05;;
39276;SDS011;63149;48.086;-1.606;2023-04-23T14:10:21;2.47;;;1.73;;
39276;SDS011;63149;48.086;-1.606;2023-04-23T14:12:49;2.28;;;1.70;;
39276;SDS011;63149;48.086;-1.606;2023-04-23T14:15:17;3.65;;;3.20;;
39276;SDS011;63149;48.086;-1.606;2023-04-23T14:17:46;5.28;;;4.13;;
39276;SDS011;63149;48.086;-1.606;2023-04-23T14:20:13;4.10;;;3.65;;
39276;SDS011;63149;48.086;-1.606;2023-04-23T14:22:41;4.72;;;3.97;;
39276;SDS011;63149;48.086;-1.606;2023-04-23T14:25:09;5.13;;;4.03;;
39276;SDS011;63149;48.086;-1.606;2023-04-23T14:27:40;4.00;;;3.60;;
39276;SDS011;63149;48.086;-1.606;2023-04-23T14:30:13;4.93;;;4.37;;
39276;SDS011;63149;48.086;-1.606;2023-04-23T14:32:41;4.80;;;4.05;;
39276;SDS011;63149;48.086;-1.606;2023-04-23T14:35:11;4.75;;;3.38;;
39276;SDS011;63149;48.086;-1.606;2023-04-23T14:37:38;4.55;;;3.20;;
39276;SDS011;63149;48.086;-1.606;2023-04-23T14:40:09;5.57;;;3.08;;
39276;SDS011;63149;48.086;-1.606;2023-04-23T14:42:37;2.88;;;2.58;;
39276;SDS011;63149;48.086;-1.606;2023-04-23T14:45:04;5.72;;;3.17;;
39276;SDS011;63149;48.086;-1.606;2023-04-23T14:47:32;4.55;;;2.83;;
39276;SDS011;63149;48.086;-1.606;2023-04-23T14:49:59;3.75;;;3.05;;
39276;SDS011;63149;48.086;-1.606;2023-04-23T14:52:28;2.40;;;2.03;;
39276;SDS011;63149;48.086;-1.606;2023-04-23T14:54:55;2.47;;;1.65;;
39276;SDS011;63149;48.086;-1.606;2023-04-23T14:57:22;3.80;;;2.53;;
39276;SDS011;63149;48.086;-1.606;2023-04-23T14:59:50;2.35;;;1.85;;
39276;SDS011;63149;48.086;-1.606;2023-04-23T15:02:17;2.58;;;2.33;;
39276;SDS011;63149;48.086;-1.606;2023-04-23T15:04:44;4.00;;;2.70;;
39276;SDS011;63149;48.086;-1.606;2023-04-23T15:07:11;2.97;;;2.38;;
39276;SDS011;63149;48.086;-1.606;2023-04-23T15:09:40;2.72;;;2.53;;
39276;SDS011;63149;48.086;-1.606;2023-04-23T15:12:22;3.60;;;2.92;;
39276;SDS011;63149;48.086;-1.606;2023-04-23T15:14:56;4.53;;;3.03;;
39276;SDS011;63149;48.086;-1.606;2023-04-23T15:17:23;4.75;;;3.28;;
39276;SDS011;63149;48.086;-1.606;2023-04-23T15:19:50;5.28;;;3.55;;
39276;SDS011;63149;48.086;-1.606;2023-04-23T15:22:18;3.40;;;3.10;;
39276;SDS011;63149;48.086;-1.606;2023-04-23T15:24:47;5.55;;;3.83;;
39276;SDS011;63149;48.086;-1.606;2023-04-23T15:27:14;3.40;;;3.08;;
39276;SDS011;63149;48.086;-1.606;2023-04-23T15:29:41;3.60;;;3.30;;
39276;SDS011;63149;48.086;-1.606;2023-04-23T15:32:08;3.92;;;3.40;;
39276;SDS011;63149;48.086;-1.606;2023-04-23T15:34:36;5.05;;;3.60;;
39276;SDS011;63149;48.086;-1.606;2023-04-23T15:37:03;7.82;;;4.43;;
39276;SDS011;63149;48.086;-1.606;2023-04-23T15:39:30;7.85;;;4.13;;
39276;SDS011;63149;48.086;-1.606;2023-04-23T15:41:59;5.63;;;3.97;;
39276;SDS011;63149;48.086;-1.606;2023-04-23T15:44:27;6.03;;;4.32;;
39276;SDS011;63149;48.086;-1.606;2023-04-23T15:46:54;7.93;;;4.50;;
39276;SDS011;63149;48.086;-1.606;2023-04-23T15:49:25;6.68;;;4.10;;
39276;SDS011;63149;48.086;-1.606;2023-04-23T15:51:52;6.32;;;4.07;;
39276;SDS011;63149;48.086;-1.606;2023-04-23T15:54:19;7.45;;;4.13;;
39276;SDS011;63149;48.086;-1.606;2023-04-23T15:56:47;6.78;;;4.00;;
39276;SDS011;63149;48.086;-1.606;2023-04-23T15:59:16;4.22;;;3.72;;
39276;SDS011;63149;48.086;-1.606;2023-04-23T16:01:43;5.07;;;3.92;;
39276;SDS011;63149;48.086;-1.606;2023-04-23T16:04:10;4.72;;;3.40;;
39276;SDS011;63149;48.086;-1.606;2023-04-23T16:06:37;4.45;;;3.35;;
39276;SDS011;63149;48.086;-1.606;2023-04-23T16:09:05;5.72;;;3.17;;
39276;SDS011;63149;48.086;-1.606;2023-04-23T16:11:32;6.93;;;3.40;;
39276;SDS011;63149;48.086;-1.606;2023-04-23T16:14:00;6.18;;;3.72;;
39276;SDS011;63149;48.086;-1.606;2023-04-23T16:16:29;4.18;;;3.63;;
39276;SDS011;63149;48.086;-1.606;2023-04-23T16:18:56;5.18;;;3.90;;
39276;SDS011;63149;48.086;-1.606;2023-04-23T16:21:23;5.28;;;3.70;;
39276;SDS011;63149;48.086;-1.606;2023-04-23T16:23:52;6.60;;;4.00;;
39276;SDS011;63149;48.086;-1.606;2023-04-23T16:26:19;6.32;;;3.00;;
39276;SDS011;63149;48.086;-1.606;2023-04-23T16:28:46;5.03;;;3.08;;
39276;SDS011;63149;48.086;-1.606;2023-04-23T16:31:13;3.58;;;2.70;;
39276;SDS011;63149;48.086;-1.606;2023-04-23T16:33:42;4.68;;;2.78;;
39276;SDS011;63149;48.086;-1.606;2023-04-23T16:36:09;6.47;;;2.30;;
39276;SDS011;63149;48.086;-1.606;2023-04-23T16:38:37;3.50;;;2.78;;
39276;SDS011;63149;48.086;-1.606;2023-04-23T16:41:04;3.58;;;2.35;;
39276;SDS011;63149;48.086;-1.606;2023-04-23T16:43:31;5.10;;;3.28;;
39276;SDS011;63149;48.086;-1.606;2023-04-23T16:45:58;6.63;;;3.25;;
39276;SDS011;63149;48.086;-1.606;2023-04-23T16:48:26;6.47;;;3.08;;
39276;SDS011;63149;48.086;-1.606;2023-04-23T16:50:54;3.85;;;2.92;;
39276;SDS011;63149;48.086;-1.606;2023-04-23T16:53:22;4.07;;;2.80;;
39276;SDS011;63149;48.086;-1.606;2023-04-23T16:55:49;4.93;;;2.90;;
39276;SDS011;63149;48.086;-1.606;2023-04-23T16:58:16;3.65;;;2.60;;
39276;SDS011;63149;48.086;-1.606;2023-04-23T17:00:43;3.90;;;2.53;;
39276;SDS011;63149;48.086;-1.606;2023-04-23T17:03:11;3.50;;;2.88;;
39276;SDS011;63149;48.086;-1.606;2023-04-23T17:05:38;3.22;;;2.42;;
39276;SDS011;63149;48.086;-1.606;2023-04-23T17:08:07;2.92;;;2.63;;
39276;SDS011;63149;48.086;-1.606;2023-04-23T17:10:34;5.95;;;2.90;;
39276;SDS011;63149;48.086;-1.606;2023-04-23T17:13:01;5.40;;;2.80;;
39276;SDS011;63149;48.086;-1.606;2023-04-23T17:15:28;4.00;;;2.60;;
39276;SDS011;63149;48.086;-1.606;2023-04-23T17:17:57;9.15;;;2.90;;
39276;SDS011;63149;48.086;-1.606;2023-04-23T17:20:24;4.85;;;3.13;;
39276;SDS011;63149;48.086;-1.606;2023-04-23T17:22:52;6.63;;;3.30;;
39276;SDS011;63149;48.086;-1.606;2023-04-23T17:25:21;7.00;;;3.10;;
39276;SDS011;63149;48.086;-1.606;2023-04-23T17:27:48;3.95;;;3.13;;
39276;SDS011;63149;48.086;-1.606;2023-04-23T17:30:15;3.92;;;3.13;;
39276;SDS011;63149;48.086;-1.606;2023-04-23T17:32:42;4.68;;;3.15;;
39276;SDS011;63149;48.086;-1.606;2023-04-23T17:35:10;5.22;;;2.88;;
39276;SDS011;63149;48.086;-1.606;2023-04-23T17:37:37;3.72;;;3.28;;
39276;SDS011;63149;48.086;-1.606;2023-04-23T17:40:05;3.85;;;3.08;;
39276;SDS011;63149;48.086;-1.606;2023-04-23T17:42:35;4.60;;;2.88;;
39276;SDS011;63149;48.086;-1.606;2023-04-23T17:45:02;4.70;;;2.88;;
39276;SDS011;63149;48.086;-1.606;2023-04-23T17:47:30;6.70;;;3.60;;
39276;SDS011;63149;48.086;-1.606;2023-04-23T17:49:57;4.13;;;2.83;;
39276;SDS011;63149;48.086;-1.606;2023-04-23T17:52:24;4.47;;;3.25;;
39276;SDS011;63149;48.086;-1.606;2023-04-23T17:54:52;5.45;;;3.90;;
39276;SDS011;63149;48.086;-1.606;2023-04-23T17:57:20;6.88;;;4.72;;
39276;SDS011;63149;48.086;-1.606;2023-04-23T17:59:49;6.75;;;4.50;;
39276;SDS011;63149;48.086;-1.606;2023-04-23T18:02:16;9.18;;;6.63;;
39276;SDS011;63149;48.086;-1.606;2023-04-23T18:04:43;7.15;;;3.75;;
39276;SDS011;63149;48.086;-1.606;2023-04-23T18:07:11;6.28;;;2.88;;
39276;SDS011;63149;48.086;-1.606;2023-04-23T18:09:38;5.82;;;3.03;;
39276;SDS011;63149;48.086;-1.606;2023-04-23T18:12:05;6.28;;;3.50;;
39276;SDS011;63149;48.086;-1.606;2023-04-23T18:14:32;9.40;;;3.40;;
39276;SDS011;63149;48.086;-1.606;2023-04-23T18:17:01;5.65;;;3.25;;
39276;SDS011;63149;48.086;-1.606;2023-04-23T18:19:28;3.85;;;3.17;;
39276;SDS011;63149;48.086;-1.606;2023-04-23T18:21:55;10.65;;;3.78;;
39276;SDS011;63149;48.086;-1.606;2023-04-23T18:24:26;5.75;;;3.17;;
39276;SDS011;63149;48.086;-1.606;2023-04-23T18:26:53;4.75;;;3.50;;
39276;SDS011;63149;48.086;-1.606;2023-04-23T18:29:22;8.15;;;2.92;;
39276;SDS011;63149;48.086;-1.606;2023-04-23T18:31:50;7.20;;;3.58;;
39276;SDS011;63149;48.086;-1.606;2023-04-23T18:34:19;5.53;;;2.90;;
39276;SDS011;63149;48.086;-1.606;2023-04-23T18:36:48;6.47;;;2.78;;
39276;SDS011;63149;48.086;-1.606;2023-04-23T18:39:15;6.50;;;2.83;;
39276;SDS011;63149;48.086;-1.606;2023-04-23T18:41:42;6.47;;;3.60;;
39276;SDS011;63149;48.086;-1.606;2023-04-23T18:44:10;8.23;;;3.03;;
39276;SDS011;63149;48.086;-1.606;2023-04-23T18:46:38;3.05;;;2.40;;
39276;SDS011;63149;48.086;-1.606;2023-04-23T18:49:05;8.13;;;2.80;;
39276;SDS011;63149;48.086;-1.606;2023-04-23T18:51:54;6.47;;;3.08;;
39276;SDS011;63149;48.086;-1.606;2023-04-23T18:54:21;5.22;;;2.85;;
39276;SDS011;63149;48.086;-1.606;2023-04-23T18:56:51;7.00;;;3.17;;
39276;SDS011;63149;48.086;-1.606;2023-04-23T18:59:18;6.28;;;2.92;;
39276;SDS011;63149;48.086;-1.606;2023-04-23T19:01:45;5.82;;;3.00;;
39276;SDS011;63149;48.086;-1.606;2023-04-23T19:04:13;4.85;;;3.08;;
39276;SDS011;63149;48.086;-1.606;2023-04-23T19:06:41;5.38;;;3.40;;
39276;SDS011;63149;48.086;-1.606;2023-04-23T19:09:09;5.97;;;2.88;;
39276;SDS011;63149;48.086;-1.606;2023-04-23T19:11:37;5.35;;;2.85;;
39276;SDS011;63149;48.086;-1.606;2023-04-23T19:14:04;8.82;;;3.10;;
39276;SDS011;63149;48.086;-1.606;2023-04-23T19:16:31;10.18;;;3.22;;
39276;SDS011;63149;48.086;-1.606;2023-04-23T19:18:59;5.32;;;3.15;;
39276;SDS011;63149;48.086;-1.606;2023-04-23T19:21:26;5.22;;;3.40;;
39276;SDS011;63149;48.086;-1.606;2023-04-23T19:23:53;9.20;;;3.53;;
39276;SDS011;63149;48.086;-1.606;2023-04-23T19:26:22;15.40;;;3.85;;
39276;SDS011;63149;48.086;-1.606;2023-04-23T19:28:49;8.80;;;3.90;;
39276;SDS011;63149;48.086;-1.606;2023-04-23T19:31:17;7.43;;;3.70;;
39276;SDS011;63149;48.086;-1.606;2023-04-23T19:33:44;8.10;;;3.53;;
39276;SDS011;63149;48.086;-1.606;2023-04-23T19:36:11;7.32;;;3.50;;
39276;SDS011;63149;48.086;-1.606;2023-04-23T19:38:39;7.60;;;3.67;;
39276;SDS011;63149;48.086;-1.606;2023-04-23T19:41:06;10.82;;;3.75;;